Honey Creek, WI

5:53 AM CST on December 25, 2014 (GMT -0600)
Rochester, WI | Change Station
CLOSE
Current Station
Personal Weather Station
Location: Rochester, WI
Elevation: 780 ft
Nearby Weather Stations

Elev 780 ft 42.74 °N, 88.24 °W | Updated 4 seconds ago

Overcast
Overcast
33.4 °F
Feels Like 33 °F
N
2.2
Wind Variable Wind from SW
Gusts 4.5 mph

Today
High -- | Low -- °F
--% Chance of Precip.
Yesterday
High -- | Low -- °F
Precip. -- in
7:22 AM 4:24 PM
Waxing Crescent, 16% visible
Pressure 29.78 in
Visibility 10.0 miles
Clouds Overcast 1800 ft
Windchill 33 °F
Dew Point 27 °F
Humidity 78%
Rainfall 0.00 in
Snow Depth Not available.
UV 0 out of 12
Pollen .10 out of 12
Air Quality Not available.
Flu Activity Not available.
METAR KBUU 251135Z AUTO 25012G16KT 10SM OVC018 00/M02 A2978 RMK AO2 T00001025

More Conditions Fewer Conditions

Pressure 29.78 in
Visibility 10.0 miles
Clouds Overcast 1800 ft
Windchill 33 °F
Dew Point 27 °F
Humidity 78%
Rainfall 0.00 in
Snow Depth Not available.
UV 0 out of 12
Pollen .10 out of 12
Air Quality Not available.
Flu Activity Not available.
METAR KBUU 251135Z AUTO 25012G16KT 10SM OVC018 00/M02 A2978 RMK AO2 T00001025

More Conditions Fewer Conditions

10-Day Weather Forecast

Almanac

Astronomy

Dec. 25, 2014 Rise Set
Actual Time
Civil Twilight
Nautical Twilight
Astronomical Twilight
Moon
Length of Visible Light
Length of Day
Tomorrow will be .
, % of the Moon is Illuminated

Today's Extremes

State Highs State Lows

Community

WunderPhotos

Upload Photos

1,780,264 photos uploaded!

WunderBlogs® & News

Nearby

Air Quality

  Air Quality AQ Index Pollutant
Not available.

Snow Depth

Station Depth Elevation

Earthquake Activity

City Distance Mag. Time & Date
Minimum magnitude displayed is 2.5.

Coastal Water Temperatures

Place Temperature

Nearby Weather Stations